createdAt,value
2019-02-08T00:00:57.421Z,3.00
2019-02-08T00:03:27.636Z,3.00
2019-02-08T00:05:57.968Z,3.00
2019-02-08T00:08:28.151Z,3.00
2019-02-08T00:10:58.323Z,3.00
2019-02-08T00:13:28.492Z,3.00
2019-02-08T00:15:58.756Z,3.00
2019-02-08T00:18:28.987Z,3.00
2019-02-08T00:21:00.009Z,3.00
2019-02-08T00:23:30.147Z,3.00
2019-02-08T00:26:00.390Z,3.00
2019-02-08T00:28:30.630Z,3.00
2019-02-08T00:31:01.382Z,3.00
2019-02-08T00:33:31.554Z,3.00
2019-02-08T00:36:02.158Z,2.90
2019-02-08T00:38:32.534Z,3.00
2019-02-08T00:41:02.849Z,3.00
2019-02-08T00:43:33.290Z,2.90
2019-02-08T00:46:04.073Z,2.90
2019-02-08T00:48:34.253Z,3.00
2019-02-08T00:51:04.918Z,3.00
2019-02-08T00:53:35.174Z,3.00
2019-02-08T00:56:05.708Z,3.00
2019-02-08T00:58:35.881Z,3.00
2019-02-08T01:01:06.243Z,3.00
2019-02-08T01:03:36.487Z,3.00
2019-02-08T01:06:07.019Z,3.00
2019-02-08T01:08:37.179Z,3.00
2019-02-08T01:11:07.543Z,3.00
2019-02-08T01:13:37.967Z,3.00
2019-02-08T01:16:08.582Z,3.00
2019-02-08T01:18:38.741Z,3.00
2019-02-08T01:21:09.296Z,3.00
2019-02-08T01:23:41.200Z,3.00
2019-02-08T01:26:11.835Z,3.10
2019-02-08T01:28:42.071Z,3.00
2019-02-08T01:31:12.326Z,3.00
2019-02-08T01:33:42.666Z,3.00
2019-02-08T01:36:13.087Z,3.00
2019-02-08T01:38:43.318Z,3.00
2019-02-08T01:41:13.641Z,3.00
2019-02-08T01:43:43.817Z,3.00
2019-02-08T01:46:14.137Z,3.00
2019-02-08T01:48:44.299Z,3.00
2019-02-08T01:51:14.585Z,3.00
2019-02-08T01:53:48.701Z,3.10
2019-02-08T01:56:16.653Z,3.10
2019-02-08T01:58:47.126Z,3.10
2019-02-08T02:01:18.086Z,3.10
2019-02-08T02:03:48.328Z,3.10
2019-02-08T02:06:18.510Z,3.10
2019-02-08T02:08:48.671Z,3.20
2019-02-08T02:11:18.929Z,3.10
2019-02-08T02:13:49.081Z,3.20
2019-02-08T02:16:19.333Z,3.20
2019-02-08T02:18:49.568Z,3.20
2019-02-08T02:21:19.826Z,3.20
2019-02-08T02:23:56.034Z,3.20
2019-02-08T02:26:21.998Z,3.20
2019-02-08T02:28:52.173Z,3.20
2019-02-08T02:31:22.354Z,3.20
2019-02-08T02:33:52.620Z,3.20
2019-02-08T02:36:22.805Z,3.20
2019-02-08T02:38:52.978Z,3.20
2019-02-08T02:41:23.646Z,3.20
2019-02-08T02:43:53.924Z,3.20
2019-02-08T02:46:24.108Z,3.20
2019-02-08T02:48:54.400Z,3.20
2019-02-08T02:51:24.584Z,3.30
2019-02-08T02:53:54.845Z,3.30
2019-02-08T02:56:25.122Z,3.30
2019-02-08T02:58:56.093Z,3.30
2019-02-08T03:01:26.418Z,3.40
2019-02-08T03:03:56.583Z,3.40
2019-02-08T03:06:26.858Z,3.40
2019-02-08T03:08:57.029Z,3.40
2019-02-08T03:11:27.709Z,3.50
2019-02-08T03:13:58.118Z,3.50
2019-02-08T03:16:29.393Z,3.50
2019-02-08T03:18:59.653Z,3.50
2019-02-08T03:21:31.436Z,3.50
2019-02-08T03:24:01.786Z,3.50
2019-02-08T03:26:32.101Z,3.50
2019-02-08T03:29:02.349Z,3.60
2019-02-08T03:31:32.596Z,3.70
2019-02-08T03:34:02.778Z,3.80
2019-02-08T03:36:32.948Z,3.80
2019-02-08T03:39:04.188Z,3.70
2019-02-08T03:41:34.530Z,3.80
2019-02-08T03:44:05.049Z,3.80
2019-02-08T03:46:35.194Z,3.70
2019-02-08T03:49:05.608Z,3.70
2019-02-08T03:51:36.128Z,3.70
2019-02-08T03:54:06.448Z,3.60
2019-02-08T03:56:36.853Z,3.50
2019-02-08T03:59:07.369Z,3.60
2019-02-08T04:01:37.717Z,3.60
2019-02-08T04:04:15.419Z,3.60
2019-02-08T04:06:45.647Z,3.60
2019-02-08T04:09:16.044Z,3.60
2019-02-08T04:11:46.409Z,3.60
2019-02-08T04:14:16.682Z,3.50
2019-02-08T04:16:46.855Z,3.50
2019-02-08T04:19:17.132Z,3.50
2019-02-08T04:21:47.482Z,3.60
2019-02-08T04:24:17.742Z,3.50
2019-02-08T04:26:47.977Z,3.50
2019-02-08T04:29:18.237Z,3.60
2019-02-08T04:31:48.401Z,3.50
2019-02-08T04:34:18.857Z,3.60
2019-02-08T04:36:49.015Z,3.70
2019-02-08T04:39:19.192Z,3.70
2019-02-08T04:41:49.473Z,3.70
2019-02-08T04:44:19.838Z,3.70
2019-02-08T04:46:50.017Z,3.70
2019-02-08T04:49:20.192Z,3.80
2019-02-08T04:51:50.513Z,3.80
2019-02-08T04:54:20.694Z,3.80
2019-02-08T04:56:50.867Z,3.90
2019-02-08T04:59:21.225Z,3.80
2019-02-08T05:01:51.390Z,3.80
2019-02-08T05:04:21.628Z,3.80
2019-02-08T05:06:51.825Z,3.80
2019-02-08T05:09:22.229Z,3.70
2019-02-08T05:11:53.484Z,3.60
2019-02-08T05:14:23.671Z,3.60
2019-02-08T05:16:54.101Z,3.60
2019-02-08T05:19:25.398Z,3.60
2019-02-08T05:21:55.556Z,3.60
2019-02-08T05:24:25.940Z,3.60
2019-02-08T05:26:56.494Z,3.60
2019-02-08T05:29:26.844Z,3.60
2019-02-08T05:31:57.050Z,3.60
2019-02-08T05:34:27.691Z,3.50
2019-02-08T05:36:57.856Z,3.50
2019-02-08T05:39:28.516Z,3.50
2019-02-08T05:41:58.887Z,3.60
2019-02-08T05:44:29.354Z,3.60
2019-02-08T05:46:59.526Z,3.60
2019-02-08T05:49:30.690Z,3.70
2019-02-08T05:52:00.854Z,3.70
2019-02-08T05:54:31.204Z,3.60
2019-02-08T05:57:01.385Z,3.60
2019-02-08T05:59:32.112Z,3.50
2019-02-08T06:02:02.417Z,3.50
2019-02-08T06:04:33.554Z,3.50
2019-02-08T06:07:04.154Z,3.50
2019-02-08T06:09:34.350Z,3.50
2019-02-08T06:12:05.089Z,3.50
2019-02-08T06:14:35.278Z,3.40
2019-02-08T06:17:05.682Z,3.40
2019-02-08T06:19:36.236Z,3.40
2019-02-08T06:22:06.461Z,3.30
2019-02-08T06:24:36.748Z,3.30
2019-02-08T06:27:07.144Z,3.20
2019-02-08T06:29:37.419Z,3.20
2019-02-08T06:32:07.657Z,3.10
2019-02-08T06:34:37.949Z,3.10
2019-02-08T06:37:08.379Z,3.00
2019-02-08T06:39:38.978Z,3.00
2019-02-08T06:42:10.024Z,3.00
2019-02-08T06:44:41.792Z,3.00
2019-02-08T06:47:12.065Z,3.00
2019-02-08T06:49:42.592Z,2.90
2019-02-08T06:52:12.906Z,2.90
2019-02-08T06:54:43.451Z,2.90
2019-02-08T06:57:15.263Z,2.80
2019-02-08T06:59:47.184Z,2.70
2019-02-08T07:02:19.247Z,2.80
2019-02-08T07:05:07.759Z,2.80
2019-02-08T07:07:48.250Z,2.80
2019-02-08T07:10:20.346Z,2.90
2019-02-08T07:13:04.131Z,2.90
2019-02-08T07:15:36.248Z,2.90
2019-02-08T07:18:14.174Z,2.90
2019-02-08T07:20:46.026Z,2.90
2019-02-08T07:23:30.146Z,2.90
2019-02-08T07:26:18.637Z,2.90
2019-02-08T07:28:50.492Z,3.00
2019-02-08T07:31:25.379Z,3.00
2019-02-08T07:34:09.261Z,3.10
2019-02-08T07:36:47.524Z,3.10
2019-02-08T07:39:25.344Z,3.10
2019-02-08T07:42:01.612Z,3.10
2019-02-08T07:44:44.976Z,3.00
2019-02-08T07:47:17.099Z,3.00
2019-02-08T07:49:49.908Z,3.00
2019-02-08T07:52:21.868Z,3.00
2019-02-08T07:54:56.706Z,3.00
2019-02-08T07:57:28.974Z,3.10
2019-02-08T08:00:03.766Z,3.10
2019-02-08T08:02:44.810Z,3.10
2019-02-08T08:05:19.574Z,3.10
2019-02-08T08:08:08.196Z,3.10
2019-02-08T08:10:40.334Z,3.10
2019-02-08T08:13:12.289Z,3.10
2019-02-08T08:15:47.626Z,3.10
2019-02-08T08:18:36.470Z,3.20
2019-02-08T08:21:11.155Z,3.20
2019-02-08T08:23:44.430Z,3.20
2019-02-08T08:26:16.913Z,3.20
2019-02-08T08:29:05.304Z,3.20
2019-02-08T08:31:46.225Z,3.30
2019-02-08T08:34:43.724Z,3.30
2019-02-08T08:37:26.013Z,3.30
2019-02-08T08:40:11.009Z,3.30
2019-02-08T08:42:46.994Z,3.30
2019-02-08T08:45:25.822Z,3.30
2019-02-08T08:48:23.253Z,3.40
2019-02-08T08:51:02.347Z,3.50
2019-02-08T08:53:47.886Z,3.50
2019-02-08T08:56:30.164Z,3.60
2019-02-08T08:59:21.327Z,3.60
2019-02-08T09:02:18.788Z,3.60
2019-02-08T09:05:01.237Z,3.70
2019-02-08T09:08:00.061Z,3.70
2019-02-08T09:10:54.006Z,3.70
2019-02-08T09:13:32.569Z,3.80
2019-02-08T09:16:20.541Z,3.80
2019-02-08T09:18:59.609Z,3.90
2019-02-08T09:21:32.843Z,4.00
2019-02-08T09:24:20.536Z,4.10
2019-02-08T09:27:10.402Z,4.20
2019-02-08T09:30:02.354Z,4.30
2019-02-08T09:32:50.266Z,4.40
2019-02-08T09:35:43.129Z,4.50
2019-02-08T09:38:31.192Z,4.50
2019-02-08T09:41:31.859Z,4.60
2019-02-08T09:44:34.129Z,4.60
2019-02-08T09:47:40.970Z,4.70
2019-02-08T09:50:22.742Z,4.60
2019-02-08T09:53:08.026Z,4.70
2019-02-08T09:55:57.828Z,4.80
2019-02-08T09:58:36.776Z,4.90
2019-02-08T10:01:43.290Z,4.90
2019-02-08T10:04:25.516Z,5.00
2019-02-08T10:07:30.539Z,5.00
2019-02-08T10:10:06.781Z,5.10
2019-02-08T10:12:55.234Z,5.10
2019-02-08T10:15:41.076Z,5.20
2019-02-08T10:18:31.015Z,5.20
2019-02-08T10:21:31.111Z,5.30
2019-02-08T10:24:23.897Z,5.30
2019-02-08T10:27:24.281Z,5.30
2019-02-08T10:30:13.908Z,5.40
2019-02-08T10:32:53.003Z,5.40
2019-02-08T10:35:45.854Z,5.40
2019-02-08T10:38:52.345Z,5.50
2019-02-08T10:41:43.853Z,5.50
2019-02-08T10:44:35.052Z,5.50
2019-02-08T10:47:27.905Z,5.50
2019-02-08T10:50:26.757Z,5.60
2019-02-08T10:53:24.132Z,5.60
2019-02-08T10:56:19.659Z,5.60
2019-02-08T10:59:10.703Z,5.80
2019-02-08T11:02:00.513Z,5.80
2019-02-08T11:04:59.593Z,5.80
2019-02-08T11:08:06.160Z,5.80
2019-02-08T11:10:56.015Z,5.90
2019-02-08T11:13:52.017Z,5.90
2019-02-08T11:16:41.713Z,5.90
2019-02-08T11:19:17.419Z,6.00
2019-02-08T11:21:49.632Z,6.10
2019-02-08T11:24:21.572Z,6.10
2019-02-08T11:26:52.179Z,6.20
2019-02-08T11:29:22.612Z,6.30
2019-02-08T11:31:52.845Z,6.40
2019-02-08T11:34:23.113Z,6.30
2019-02-08T11:36:53.534Z,6.40
2019-02-08T11:39:23.804Z,6.30
2019-02-08T11:41:54.149Z,6.30
2019-02-08T11:44:24.703Z,6.40
2019-02-08T11:46:55.609Z,6.50
2019-02-08T11:49:25.887Z,6.40
2019-02-08T11:52:00.495Z,6.50
2019-02-08T11:54:31.585Z,6.60
2019-02-08T11:57:01.820Z,6.60
2019-02-08T11:59:32.077Z,6.70
2019-02-08T12:02:02.384Z,6.70
2019-02-08T12:04:33.147Z,6.80
2019-02-08T12:07:04.187Z,6.80
2019-02-08T12:09:34.378Z,6.80
2019-02-08T12:12:04.687Z,6.80
2019-02-08T12:14:34.945Z,6.90
2019-02-08T12:17:05.248Z,6.90
2019-02-08T12:19:35.624Z,6.90
2019-02-08T12:22:05.885Z,6.80
2019-02-08T12:24:36.185Z,6.80
2019-02-08T12:27:06.332Z,6.90
2019-02-08T12:29:36.517Z,7.00
2019-02-08T12:32:06.757Z,7.00
2019-02-08T12:34:37.073Z,7.10
2019-02-08T12:37:07.332Z,7.10
2019-02-08T12:39:37.729Z,7.10
2019-02-08T12:42:08.483Z,7.00
2019-02-08T12:44:38.891Z,7.00
2019-02-08T12:47:09.069Z,6.90
2019-02-08T12:49:39.247Z,6.90
2019-02-08T12:52:09.489Z,7.00
2019-02-08T12:54:39.605Z,7.10
2019-02-08T12:57:09.794Z,7.10
2019-02-08T12:59:39.961Z,7.10
2019-02-08T13:02:10.149Z,7.00
2019-02-08T13:04:40.418Z,7.10
2019-02-08T13:07:10.785Z,7.10
2019-02-08T13:09:40.958Z,7.10
2019-02-08T13:12:11.220Z,7.10
2019-02-08T13:14:41.394Z,7.10
2019-02-08T13:17:11.598Z,7.20
2019-02-08T13:19:41.757Z,7.10
2019-02-08T13:22:12.106Z,7.20
2019-02-08T13:24:42.568Z,7.20
2019-02-08T13:27:13.111Z,7.20
2019-02-08T13:29:43.651Z,7.30
2019-02-08T13:32:14.152Z,7.30
2019-02-08T13:34:44.321Z,7.30
2019-02-08T13:37:14.514Z,7.30
2019-02-08T13:39:46.459Z,7.20
2019-02-08T13:42:17.556Z,7.20
2019-02-08T13:44:47.804Z,7.20
2019-02-08T13:47:18.062Z,7.20
2019-02-08T13:49:48.168Z,7.20
2019-02-08T13:52:18.532Z,7.20
2019-02-08T13:54:48.716Z,7.30
2019-02-08T13:57:19.158Z,7.30
2019-02-08T13:59:50.084Z,7.30
2019-02-08T14:02:20.572Z,7.30
2019-02-08T14:04:50.812Z,7.30
2019-02-08T14:07:21.011Z,7.30
2019-02-08T14:09:51.241Z,7.30
2019-02-08T14:12:23.202Z,7.40
2019-02-08T14:14:53.470Z,7.40
2019-02-08T14:17:23.761Z,7.40
2019-02-08T14:19:53.935Z,7.40
2019-02-08T14:22:24.845Z,7.40
2019-02-08T14:24:55.085Z,7.40
2019-02-08T14:27:25.277Z,7.50
2019-02-08T14:29:55.452Z,7.50
2019-02-08T14:32:25.650Z,7.50
2019-02-08T14:34:55.888Z,7.40
2019-02-08T14:37:26.079Z,7.40
2019-02-08T14:39:56.312Z,7.40
2019-02-08T14:42:26.696Z,7.40
2019-02-08T14:44:56.848Z,7.30
2019-02-08T14:47:27.037Z,7.30
2019-02-08T14:49:57.228Z,7.30
2019-02-08T14:52:27.368Z,7.30
2019-02-08T14:54:57.522Z,7.20
2019-02-08T14:57:28.487Z,7.20
2019-02-08T14:59:58.659Z,7.20
2019-02-08T15:02:29.020Z,7.20
2019-02-08T15:04:59.399Z,7.20
2019-02-08T15:07:29.601Z,7.20
2019-02-08T15:09:59.871Z,7.20
2019-02-08T15:12:30.120Z,7.20
2019-02-08T15:15:00.388Z,7.20
2019-02-08T15:17:30.580Z,7.20
2019-02-08T15:20:00.768Z,7.10
2019-02-08T15:22:31.038Z,7.10
2019-02-08T15:25:02.991Z,7.10
2019-02-08T15:27:33.250Z,7.10
2019-02-08T15:30:05.116Z,7.00
2019-02-08T15:32:35.448Z,7.00
2019-02-08T15:35:08.539Z,7.00
2019-02-08T15:37:38.737Z,7.00
2019-02-08T15:40:11.969Z,7.00
2019-02-08T15:42:42.760Z,6.90
2019-02-08T15:45:20.245Z,6.90
2019-02-08T15:47:50.562Z,6.90
2019-02-08T15:50:21.064Z,6.80
2019-02-08T15:52:51.266Z,6.80
2019-02-08T15:55:28.513Z,6.80
2019-02-08T15:57:58.750Z,6.80
2019-02-08T16:00:30.751Z,6.70
2019-02-08T16:03:01.768Z,6.70
2019-02-08T16:05:32.380Z,6.60
2019-02-08T16:08:02.575Z,6.70
2019-02-08T16:10:32.745Z,6.60
2019-02-08T16:13:03.000Z,6.60
2019-02-08T16:15:33.311Z,6.50
2019-02-08T16:18:03.620Z,6.50
2019-02-08T16:20:33.912Z,6.40
2019-02-08T16:23:06.363Z,6.40
2019-02-08T16:25:37.058Z,6.40
2019-02-08T16:28:07.711Z,6.30
2019-02-08T16:30:38.710Z,6.30
2019-02-08T16:33:09.632Z,6.20
2019-02-08T16:35:40.068Z,6.20
2019-02-08T16:38:11.363Z,6.20
2019-02-08T16:40:41.740Z,6.10
2019-02-08T16:43:11.941Z,6.10
2019-02-08T16:45:42.586Z,6.00
2019-02-08T16:48:14.365Z,6.00
2019-02-08T16:50:44.880Z,5.90
2019-02-08T16:53:15.310Z,5.90
2019-02-08T16:55:45.632Z,5.90
2019-02-08T16:58:15.889Z,5.80
2019-02-08T17:00:46.074Z,5.90
2019-02-08T17:03:16.255Z,5.80
2019-02-08T17:05:46.424Z,5.80
2019-02-08T17:08:16.748Z,5.80
2019-02-08T17:10:46.979Z,5.80
2019-02-08T17:13:17.270Z,5.80
2019-02-08T17:15:47.515Z,5.70
2019-02-08T17:18:17.697Z,5.70
2019-02-08T17:20:50.534Z,5.70
2019-02-08T17:23:20.717Z,5.70
2019-02-08T17:25:50.961Z,5.60
2019-02-08T17:28:21.190Z,5.60
2019-02-08T17:30:51.348Z,5.60
2019-02-08T17:33:21.554Z,5.60
2019-02-08T17:35:51.789Z,5.60
2019-02-08T17:38:21.976Z,5.60
2019-02-08T17:40:52.139Z,5.50
2019-02-08T17:43:22.449Z,5.50
2019-02-08T17:45:54.297Z,5.50
2019-02-08T17:48:24.680Z,5.50
2019-02-08T17:50:56.485Z,5.50
2019-02-08T17:53:26.697Z,5.50
2019-02-08T17:55:56.872Z,5.50
2019-02-08T17:58:27.109Z,5.50
2019-02-08T18:00:58.271Z,5.50
2019-02-08T18:03:28.577Z,5.40
2019-02-08T18:05:58.748Z,5.40
2019-02-08T18:08:29.048Z,5.40
2019-02-08T18:10:59.211Z,5.40
2019-02-08T18:13:29.401Z,5.50
2019-02-08T18:15:59.611Z,5.40
2019-02-08T18:18:29.889Z,5.50
2019-02-08T18:21:01.238Z,5.50
2019-02-08T18:23:31.589Z,5.50
2019-02-08T18:26:01.782Z,5.60
2019-02-08T18:28:32.118Z,5.60
2019-02-08T18:31:02.374Z,5.60
2019-02-08T18:33:32.708Z,5.60
2019-02-08T18:36:02.892Z,5.60
2019-02-08T18:38:33.066Z,5.60
2019-02-08T18:41:03.392Z,5.60
2019-02-08T18:43:34.022Z,5.60
2019-02-08T18:46:04.275Z,5.60
2019-02-08T18:48:34.536Z,5.50
2019-02-08T18:51:05.072Z,5.50
2019-02-08T18:53:35.236Z,5.50
2019-02-08T18:56:05.420Z,5.60
2019-02-08T18:58:36.279Z,5.50
2019-02-08T19:01:06.806Z,5.50
2019-02-08T19:03:36.992Z,5.50
2019-02-08T19:06:07.309Z,5.50
2019-02-08T19:08:44.553Z,5.50
2019-02-08T19:11:14.744Z,5.50
2019-02-08T19:13:45.207Z,5.50
2019-02-08T19:16:15.793Z,5.50
2019-02-08T19:18:45.958Z,5.50
2019-02-08T19:21:16.408Z,5.50
2019-02-08T19:23:46.576Z,5.40
2019-02-08T19:26:16.765Z,5.40
2019-02-08T19:28:46.932Z,5.40
2019-02-08T19:31:17.936Z,5.40
2019-02-08T19:33:48.055Z,5.40
2019-02-08T19:36:19.009Z,5.40
2019-02-08T19:38:49.188Z,5.40
2019-02-08T19:41:19.508Z,5.40
2019-02-08T19:43:49.696Z,5.40
2019-02-08T19:46:19.856Z,5.40
2019-02-08T19:48:50.048Z,5.40
2019-02-08T19:51:20.369Z,5.50
2019-02-08T19:53:50.547Z,5.50
2019-02-08T19:56:20.814Z,5.40
2019-02-08T19:58:50.987Z,5.30
2019-02-08T20:01:21.220Z,5.30
2019-02-08T20:03:51.504Z,5.30
2019-02-08T20:06:22.054Z,5.30
2019-02-08T20:08:52.419Z,5.30
2019-02-08T20:11:22.708Z,5.40
2019-02-08T20:13:53.837Z,5.40
2019-02-08T20:16:24.021Z,5.40
2019-02-08T20:18:54.182Z,5.40
2019-02-08T20:21:24.458Z,5.40
2019-02-08T20:23:54.737Z,5.40
2019-02-08T20:26:25.006Z,5.30
2019-02-08T20:28:55.158Z,5.30
2019-02-08T20:31:25.444Z,5.30
2019-02-08T20:33:55.686Z,5.40
2019-02-08T20:36:26.043Z,5.40
2019-02-08T20:38:56.541Z,5.40
2019-02-08T20:41:26.773Z,5.40
2019-02-08T20:43:58.666Z,5.30
2019-02-08T20:46:32.018Z,5.30
2019-02-08T20:49:02.303Z,5.40
2019-02-08T20:51:32.557Z,5.40
2019-02-08T20:54:02.735Z,5.30
2019-02-08T20:56:32.993Z,5.30
2019-02-08T20:59:03.242Z,5.30
2019-02-08T21:01:33.429Z,5.30
2019-02-08T21:04:03.757Z,5.20
2019-02-08T21:06:34.940Z,5.20
2019-02-08T21:09:08.295Z,5.20
2019-02-08T21:11:39.528Z,5.20
2019-02-08T21:14:09.936Z,5.20
2019-02-08T21:16:40.130Z,5.20
2019-02-08T21:19:10.444Z,5.20
2019-02-08T21:21:40.900Z,5.20
2019-02-08T21:24:11.078Z,5.20
2019-02-08T21:26:41.272Z,5.20
2019-02-08T21:29:11.509Z,5.20
2019-02-08T21:31:41.769Z,5.30
2019-02-08T21:34:11.954Z,5.30
2019-02-08T21:36:42.149Z,5.30
2019-02-08T21:39:12.453Z,5.40
2019-02-08T21:41:42.850Z,5.40
2019-02-08T21:44:13.089Z,5.40
2019-02-08T21:46:43.378Z,5.50
2019-02-08T21:49:13.610Z,5.50
2019-02-08T21:51:43.928Z,5.50
2019-02-08T21:54:14.093Z,5.50
2019-02-08T21:56:44.280Z,5.50
2019-02-08T21:59:14.872Z,5.50
2019-02-08T22:01:45.184Z,5.50
2019-02-08T22:04:15.455Z,5.40
2019-02-08T22:06:45.765Z,5.40
2019-02-08T22:09:16.128Z,5.40
2019-02-08T22:11:46.762Z,5.40
2019-02-08T22:14:17.159Z,5.40
2019-02-08T22:16:47.325Z,5.40
2019-02-08T22:19:17.526Z,5.30
2019-02-08T22:21:47.684Z,5.30
2019-02-08T22:24:17.954Z,5.30
2019-02-08T22:26:48.252Z,5.20
2019-02-08T22:29:19.452Z,5.20
2019-02-08T22:31:50.026Z,5.20
2019-02-08T22:34:20.284Z,5.30
2019-02-08T22:36:50.921Z,5.30
2019-02-08T22:39:21.582Z,5.40
2019-02-08T22:41:54.314Z,5.40
2019-02-08T22:44:25.074Z,5.50
2019-02-08T22:46:55.300Z,5.50
2019-02-08T22:49:25.487Z,5.60
2019-02-08T22:51:55.645Z,5.60
2019-02-08T22:54:25.963Z,5.60
2019-02-08T22:56:56.562Z,5.60
2019-02-08T22:59:26.751Z,5.60
2019-02-08T23:01:57.245Z,5.60
2019-02-08T23:04:27.508Z,5.70
2019-02-08T23:06:57.710Z,5.60
2019-02-08T23:09:28.024Z,5.60
2019-02-08T23:11:58.428Z,5.60
2019-02-08T23:14:28.686Z,5.60
2019-02-08T23:16:58.957Z,5.60
2019-02-08T23:19:29.286Z,5.70
2019-02-08T23:21:59.862Z,5.70
2019-02-08T23:24:30.119Z,5.70
2019-02-08T23:27:01.217Z,5.70
2019-02-08T23:29:31.707Z,5.70
2019-02-08T23:32:01.923Z,5.70
2019-02-08T23:34:32.172Z,5.70
2019-02-08T23:37:02.438Z,5.70
2019-02-08T23:39:32.716Z,5.70
2019-02-08T23:42:02.877Z,5.70
2019-02-08T23:44:33.198Z,5.70
2019-02-08T23:47:03.532Z,5.70
2019-02-08T23:49:33.709Z,5.70
2019-02-08T23:52:04.111Z,5.70
2019-02-08T23:54:34.293Z,5.70
2019-02-08T23:57:04.734Z,5.70
2019-02-08T23:59:38.134Z,5.70
